Richville, Arizona
Current Conditions -  °F | °C
As of 11:54 PM on Tuesday 21 Oct 2014 (Local Time) from KSJN Reporting Station
Clear Clear  
Wind Chill: 52°   Ceiling: Unl
Heat Index: 52°   Visibility: 10mi
Dew Point: 47°   Wind: 3mph
Humidity: 83%   Direction: 100°E
Pressure: 30.1"   Gusts: NA
Location:  34.4981°N, 109.241°W
Report Text: KSJN 220654Z AUTO 10003KT 10SM CLR 11/08 A3010 RMK AO2 SLP129 T01110083 402110044
Loading
Personal Weather Stations






























Interactive Weather Map
Tropical Storm Tracking
New forecast layout! Learn more

10-Day Weather Forecast

Advertisements
Track Severe Weather on mobile